Time;durP1;ratioP1;P1;durP2;ratioP2;P2;SDS_P1;SDS_P2;PMS_P1;PMS_P2;Temp;Humidity;BMP_temperature;BMP_pressure;BME280_temperature;BME280_humidity;BME280_pressure;Samples;Min_cycle;Max_cycle;Signal;HPM_P1;HPM_P2
2023/08/12 00:00:36;;;;;;;5.80;4.80;;;;;;;19.19;73.20;99797.98;106607;1257;73057;-82
2023/08/12 00:03:04;;;;;;;4.30;3.90;;;;;;;19.26;73.12;99797.98;107032;1256;69021;-83
2023/08/12 00:05:31;;;;;;;6.40;4.40;;;;;;;19.32;72.88;99794.10;105759;1259;72480;-83
2023/08/12 00:07:59;;;;;;;5.90;4.30;;;;;;;19.30;72.82;99795.91;107218;1257;60096;-85
2023/08/12 00:10:26;;;;;;;8.20;4.40;;;;;;;19.22;72.86;99799.73;106881;1257;60079;-83
2023/08/12 00:12:54;;;;;;;5.90;4.30;;;;;;;19.15;72.85;99801.20;105893;1255;71789;-84
2023/08/12 00:15:21;;;;;;;4.90;4.40;;;;;;;19.10;72.91;99799.23;105910;1255;70028;-83
2023/08/12 00:17:48;;;;;;;7.90;4.70;;;;;;;19.05;72.71;99795.99;105689;1258;72690;-82
2023/08/12 00:20:16;;;;;;;5.60;5.00;;;;;;;18.98;72.64;99791.97;105663;1262;59711;-84
2023/08/12 00:22:44;;;;;;;8.50;4.20;;;;;;;18.90;72.72;99794.13;105725;1255;60057;-84
2023/08/12 00:25:11;;;;;;;5.10;4.20;;;;;;;18.90;72.68;99791.48;105617;1257;73056;-83
2023/08/12 00:27:39;;;;;;;5.10;4.50;;;;;;;18.85;72.56;99791.17;105721;1259;69968;-83
2023/08/12 00:30:07;;;;;;;5.20;4.70;;;;;;;18.75;72.59;99792.88;105851;1257;72722;-84
2023/08/12 00:32:35;;;;;;;5.60;5.00;;;;;;;18.66;72.42;99800.83;105902;1257;62073;-81
2023/08/12 00:35:02;;;;;;;6.30;5.30;;;;;;;18.53;72.57;99791.99;106408;1257;59710;-84
2023/08/12 00:37:30;;;;;;;8.20;4.70;;;;;;;18.42;72.91;99793.04;107425;1256;72071;-82
2023/08/12 00:39:57;;;;;;;7.80;4.20;;;;;;;18.36;73.14;99794.94;108774;1256;68254;-83
2023/08/12 00:42:25;;;;;;;7.30;4.60;;;;;;;18.40;73.15;99790.40;108922;1257;71087;-80
2023/08/12 00:44:52;;;;;;;5.50;4.50;;;;;;;18.45;73.09;99791.30;108296;1256;59614;-82
2023/08/12 00:47:20;;;;;;;5.80;4.60;;;;;;;18.43;72.99;99788.92;108276;1257;58867;-82
2023/08/12 00:49:48;;;;;;;7.40;5.20;;;;;;;18.40;72.96;99787.71;106886;1262;73096;-84
2023/08/12 00:52:15;;;;;;;5.70;4.60;;;;;;;18.34;72.96;99788.13;108010;1257;70503;-82
2023/08/12 00:54:43;;;;;;;5.10;4.50;;;;;;;18.28;73.06;99793.33;107019;1257;72695;-84
2023/08/12 00:57:10;;;;;;;6.40;4.80;;;;;;;18.24;73.03;99788.11;105772;1262;59689;-85
2023/08/12 00:59:39;;;;;;;5.60;5.00;;;;;;;18.20;73.04;99786.02;105742;1257;59739;-83
2023/08/12 01:02:08;;;;;;;4.80;4.30;;;;;;;18.25;73.07;99786.66;105599;1257;71491;-84
2023/08/12 01:04:35;;;;;;;5.20;4.20;;;;;;;18.28;73.10;99787.26;105704;1257;69062;-83
2023/08/12 01:07:03;;;;;;;6.40;4.80;;;;;;;18.24;72.94;99788.69;105727;1257;72838;-83
2023/08/12 01:09:31;;;;;;;5.60;4.90;;;;;;;18.17;73.00;99790.60;105677;1260;59710;-81
2023/08/12 01:12:25;;;;;;;8.70;5.30;;;;;;;18.09;72.97;99794.04;105570;1262;59600;-82
2023/08/12 01:15:01;;;;;;;6.60;5.10;;;;;;;17.99;73.17;99791.20;105534;1258;73044;-81
2023/08/12 01:17:28;;;;;;;6.40;4.80;;;;;;;17.89;73.35;99790.70;105549;1260;72720;-82
2023/08/12 01:19:56;;;;;;;6.10;4.60;;;;;;;17.81;73.42;99789.20;105569;1257;72700;-82
2023/08/12 01:22:24;;;;;;;4.90;4.50;;;;;;;17.79;73.56;99793.17;105729;1262;60464;-84
2023/08/12 01:24:52;;;;;;;6.20;4.70;;;;;;;17.75;73.61;99793.14;105707;1257;59779;-80
2023/08/12 01:27:20;;;;;;;8.30;5.20;;;;;;;17.64;73.81;99791.88;105904;1254;72244;-83
2023/08/12 01:29:50;;;;;;;5.20;4.50;;;;;;;17.54;74.13;99783.61;107376;1254;70072;-84
2023/08/12 01:32:34;;;;;;;5.70;5.00;;;;;;;17.47;74.41;99784.92;107746;1258;72659;-85
2023/08/12 01:35:10;;;;;;;6.70;4.90;;;;;;;17.40;74.66;99782.50;107536;1256;61679;-83
2023/08/12 01:37:37;;;;;;;6.50;5.00;;;;;;;17.42;74.82;99778.37;108365;1254;59006;-81
2023/08/12 01:40:05;;;;;;;5.20;4.70;;;;;;;17.43;74.85;99777.54;107350;1253;72107;-83
2023/08/12 01:42:33;;;;;;;7.20;5.10;;;;;;;17.40;75.09;99779.11;108097;1253;70774;-81
2023/08/12 01:45:04;;;;;;;9.20;5.30;;;;;;;17.38;75.32;99777.42;108453;1254;71769;-81
2023/08/12 01:47:32;;;;;;;5.60;5.00;;;;;;;17.32;75.39;99775.54;106751;1254;60091;-81
2023/08/12 01:49:59;;;;;;;6.60;5.10;;;;;;;17.24;75.74;99770.94;106961;1252;59711;-82
2023/08/12 01:52:27;;;;;;;5.20;4.70;;;;;;;17.26;75.78;99767.25;108833;1252;71790;-81
2023/08/12 01:54:54;;;;;;;8.80;5.70;;;;;;;17.28;75.85;99768.41;107940;1254;70098;-80
2023/08/12 01:57:22;;;;;;;8.30;5.60;;;;;;;17.24;76.03;99768.05;106163;1258;72468;-80
2023/08/12 01:59:50;;;;;;;6.90;5.40;;;;;;;17.22;76.28;99769.00;106189;1257;59676;-81
2023/08/12 02:02:18;;;;;;;10.50;5.30;;;;;;;17.21;76.39;99769.73;106113;1252;60027;-79
2023/08/12 02:04:46;;;;;;;8.00;5.20;;;;;;;17.19;76.60;99769.80;106147;1258;72263;-78
2023/08/12 02:07:13;;;;;;;5.60;5.00;;;;;;;17.26;76.45;99769.74;105943;1254;69892;-81
2023/08/12 02:09:41;;;;;;;9.20;5.40;;;;;;;17.29;76.51;99769.23;105918;1258;71819;-81
2023/08/12 02:12:08;;;;;;;7.40;5.20;;;;;;;17.23;76.67;99772.84;105772;1257;59721;-82
2023/08/12 02:14:36;;;;;;;8.00;5.50;;;;;;;17.16;76.94;99774.67;105877;1254;59554;-81
2023/08/12 02:17:06;;;;;;;7.40;5.70;;;;;;;17.11;77.15;99776.84;105865;1254;73113;-82
2023/08/12 02:19:34;;;;;;;5.40;4.90;;;;;;;17.06;77.23;99777.92;107241;1254;70098;-81
2023/08/12 02:22:01;;;;;;;7.40;4.80;;;;;;;17.10;77.32;99780.67;107499;1254;71060;-81
2023/08/12 02:24:29;;;;;;;7.00;5.10;;;;;;;17.14;77.33;99784.96;105874;1254;60018;-82
2023/08/12 02:26:58;;;;;;;7.00;6.00;;;;;;;17.12;77.58;99783.82;105929;1257;59550;-82
2023/08/12 02:29:25;;;;;;;7.30;5.80;;;;;;;17.09;77.73;99779.15;105881;1254;73120;-83
2023/08/12 02:31:53;;;;;;;6.90;6.00;;;;;;;17.07;77.81;99777.84;106218;1260;68735;-82
2023/08/12 02:34:20;;;;;;;7.20;5.30;;;;;;;17.07;77.81;99775.11;109059;1252;71203;-82
2023/08/12 02:36:48;;;;;;;6.20;4.80;;;;;;;17.13;77.79;99772.16;109440;1254;59412;-83
2023/08/12 02:39:15;;;;;;;8.20;5.50;;;;;;;17.15;77.79;99772.38;109402;1252;58748;-82
2023/08/12 02:41:43;;;;;;;7.50;5.20;;;;;;;17.08;78.07;99774.37;109059;1254;72075;-82
2023/08/12 02:44:10;;;;;;;6.50;5.80;;;;;;;17.01;78.32;99775.83;108898;1254;68713;-81
2023/08/12 02:46:37;;;;;;;6.40;5.30;;;;;;;16.97;78.53;99775.34;107754;1253;71804;-84
2023/08/12 02:49:05;;;;;;;6.30;5.00;;;;;;;16.97;78.61;99780.00;107876;1254;60378;-84
2023/08/12 02:51:32;;;;;;;6.20;5.30;;;;;;;16.99;78.59;99782.02;106281;1255;59704;-83
2023/08/12 02:54:00;;;;;;;9.70;5.90;;;;;;;16.93;78.86;99781.42;106190;1257;72165;-83
2023/08/12 02:56:27;;;;;;;9.20;6.20;;;;;;;16.83;79.11;99784.27;106437;1254;68892;-81
2023/08/12 02:58:54;;;;;;;7.60;5.80;;;;;;;16.76;79.59;99782.48;107357;1254;73025;-81
2023/08/12 03:01:22;;;;;;;7.00;5.70;;;;;;;16.70;79.78;99780.98;108211;1254;60455;-82
2023/08/12 03:03:49;;;;;;;6.60;5.80;;;;;;;16.71;80.03;99776.66;108326;1254;59592;-82
2023/08/12 03:06:17;;;;;;;7.50;6.40;;;;;;;16.65;80.21;99776.41;107355;1259;70831;-82
2023/08/12 03:08:45;;;;;;;7.00;6.30;;;;;;;16.56;80.62;99775.55;107116;1254;68801;-84
2023/08/12 03:11:12;;;;;;;7.90;5.50;;;;;;;16.50;81.10;99769.81;106888;1259;71448;-83
2023/08/12 03:13:40;;;;;;;5.70;5.20;;;;;;;16.53;81.10;99772.41;106081;1256;60402;-83
2023/08/12 03:16:13;;;;;;;6.60;5.50;;;;;;;16.56;81.14;99772.77;106850;1252;59582;-84
2023/08/12 03:18:42;;;;;;;7.70;6.20;;;;;;;16.51;81.57;99772.29;108430;1254;72685;-84
2023/08/12 03:21:10;;;;;;;10.70;7.00;;;;;;;16.45;81.85;99774.67;106751;1258;67860;-85
2023/08/12 03:23:38;;;;;;;8.60;6.00;;;;;;;16.43;82.11;99780.54;106085;1254;73503;-85
2023/08/12 03:26:06;;;;;;;7.40;6.10;;;;;;;16.49;82.08;99775.96;105934;1257;61734;-85
2023/08/12 03:28:34;;;;;;;11.70;6.20;;;;;;;16.53;82.14;99778.93;105981;1259;60024;-84
2023/08/12 03:31:02;;;;;;;8.80;6.70;;;;;;;16.49;82.34;99776.05;106179;1255;71874;-84
2023/08/12 03:33:32;;;;;;;7.80;6.70;;;;;;;16.44;82.47;99778.93;106492;1260;70512;-83
2023/08/12 03:36:00;;;;;;;8.30;6.20;;;;;;;16.45;82.85;99777.95;106034;1259;71426;-83
2023/08/12 03:38:28;;;;;;;7.30;6.60;;;;;;;16.49;82.89;99779.33;105629;1255;60562;-82
2023/08/12 03:40:55;;;;;;;7.60;6.90;;;;;;;16.44;83.04;99780.12;106992;1259;60101;-81
2023/08/12 03:43:24;;;;;;;7.00;6.30;;;;;;;16.36;83.43;99778.84;107086;1253;72571;-79
2023/08/12 03:45:51;;;;;;;7.30;6.50;;;;;;;16.34;83.79;99778.88;106541;1260;68482;-80
2023/08/12 03:48:19;;;;;;;10.00;6.80;;;;;;;16.38;83.85;99779.30;107724;1254;72559;-81
2023/08/12 03:50:47;;;;;;;8.70;7.30;;;;;;;16.37;83.86;99781.77;107121;1259;60634;-82
2023/08/12 03:53:15;;;;;;;10.70;8.90;;;;;;;16.33;84.27;99779.58;105732;1259;61091;-83
2023/08/12 03:55:42;;;;;;;7.80;6.80;;;;;;;16.34;84.31;99784.45;105861;1259;72541;-82
2023/08/12 03:58:10;;;;;;;11.50;7.50;;;;;;;16.37;84.25;99780.12;105893;1260;70146;-80
2023/08/12 04:00:42;;;;;;;9.60;7.30;;;;;;;16.36;84.39;99776.90;106021;1254;73031;-79
2023/08/12 04:03:11;;;;;;;9.90;8.80;;;;;;;16.32;84.57;99781.10;106005;1259;62113;-81
2023/08/12 04:05:50;;;;;;;11.10;9.90;;;;;;;16.35;84.64;99777.36;106496;1257;60361;-81
2023/08/12 04:08:20;;;;;;;9.80;8.10;;;;;;;16.44;84.47;99780.29;106860;1253;73888;-80
2023/08/12 04:10:48;;;;;;;10.40;8.00;;;;;;;16.44;84.59;99783.00;108759;1254;69152;-82
2023/08/12 04:13:15;;;;;;;7.60;6.80;;;;;;;16.47;84.51;99782.10;108835;1256;71152;-82
2023/08/12 04:15:42;;;;;;;7.40;6.50;;;;;;;16.61;84.31;99780.99;108266;1254;60404;-79
2023/08/12 04:18:10;;;;;;;7.90;7.20;;;;;;;16.73;83.75;99781.40;106020;1259;60533;-79
2023/08/12 04:20:38;;;;;;;8.10;7.40;;;;;;;16.76;83.57;99779.38;105935;1257;72647;-81
2023/08/12 04:23:06;;;;;;;7.40;6.40;;;;;;;16.78;83.40;99782.19;106025;1258;69076;-81
2023/08/12 04:25:33;;;;;;;8.10;7.30;;;;;;;16.89;82.99;99782.66;105848;1255;73086;-81
2023/08/12 04:28:01;;;;;;;8.70;7.00;;;;;;;16.96;82.56;99781.89;105881;1255;60534;-79
2023/08/12 04:30:28;;;;;;;7.90;7.10;;;;;;;16.94;82.54;99782.86;106359;1253;60460;-85
2023/08/12 04:32:56;;;;;;;7.60;6.60;;;;;;;16.91;82.60;99785.59;108147;1257;73284;-83
2023/08/12 04:35:24;;;;;;;7.20;6.60;;;;;;;16.96;82.49;99787.23;106450;1260;69178;-82
2023/08/12 04:37:52;;;;;;;7.20;6.30;;;;;;;17.02;82.32;99783.75;106407;1253;72780;-82
2023/08/12 04:40:19;;;;;;;10.20;7.80;;;;;;;17.01;82.22;99784.95;107374;1254;60328;-82
2023/08/12 04:42:46;;;;;;;8.00;7.20;;;;;;;17.01;82.43;99787.52;108379;1253;60453;-80
2023/08/12 04:45:14;;;;;;;9.00;6.70;;;;;;;17.07;82.29;99785.30;107741;1260;72594;-83
2023/08/12 04:47:42;;;;;;;7.50;6.80;;;;;;;17.20;81.89;99784.29;106562;1253;70178;-82
2023/08/12 04:50:10;;;;;;;10.20;7.00;;;;;;;17.26;81.63;99784.98;108943;1257;71782;-83
2023/08/12 04:52:37;;;;;;;9.80;6.90;;;;;;;17.28;81.47;99788.07;108973;1253;60120;-82
2023/08/12 04:55:05;;;;;;;7.10;6.40;;;;;;;17.34;81.32;99786.89;108867;1252;59263;-82
2023/08/12 04:57:33;;;;;;;7.50;6.70;;;;;;;17.45;80.93;99785.90;107609;1252;74326;-81
2023/08/12 05:00:00;;;;;;;7.60;6.90;;;;;;;17.52;80.68;99784.87;107740;1254;68863;-83
2023/08/12 05:02:27;;;;;;;7.50;6.80;;;;;;;17.54;80.50;99784.05;109220;1253;71438;-83
2023/08/12 05:04:55;;;;;;;8.40;7.50;;;;;;;17.55;80.37;99788.69;109397;1253;58868;-83
2023/08/12 05:07:23;;;;;;;6.40;5.80;;;;;;;17.59;80.15;99789.20;109385;1254;58814;-82
2023/08/12 05:09:50;;;;;;;9.40;6.70;;;;;;;17.71;79.85;99793.20;106785;1255;72361;-81
2023/08/12 05:12:18;;;;;;;8.80;6.70;;;;;;;17.74;79.37;99792.88;109009;1254;68825;-81
2023/08/12 05:14:46;;;;;;;7.70;6.30;;;;;;;17.70;79.50;99791.97;107781;1254;71222;-80
2023/08/12 05:17:13;;;;;;;7.80;6.70;;;;;;;17.67;79.54;99796.98;107520;1254;60424;-81
2023/08/12 05:19:42;;;;;;;7.50;6.30;;;;;;;17.68;79.75;99789.83;107240;1254;60305;-79
2023/08/12 05:22:10;;;;;;;8.00;5.60;;;;;;;17.77;79.45;99790.95;108845;1254;72531;-82
2023/08/12 05:24:38;;;;;;;7.40;6.50;;;;;;;17.88;79.35;99788.94;108943;1255;70349;-77
2023/08/12 05:27:06;;;;;;;6.90;6.30;;;;;;;17.94;79.19;99794.14;107165;1254;71687;-78
2023/08/12 05:29:33;;;;;;;8.00;7.10;;;;;;;17.95;78.82;99795.48;105972;1255;60519;-80
2023/08/12 05:32:00;;;;;;;9.90;7.20;;;;;;;17.92;78.71;99796.30;105964;1259;60456;-80
2023/08/12 05:34:28;;;;;;;7.40;6.50;;;;;;;17.88;78.80;99798.41;106214;1254;72545;-79
2023/08/12 05:36:57;;;;;;;7.90;6.60;;;;;;;17.94;78.77;99803.46;105610;1255;69960;-79
2023/08/12 05:39:25;;;;;;;13.40;6.60;;;;;;;17.95;78.75;99806.39;106312;1258;70357;-80
2023/08/12 05:41:52;;;;;;;7.70;7.00;;;;;;;17.92;78.73;99805.21;107200;1257;60447;-80
2023/08/12 05:44:19;;;;;;;8.00;7.10;;;;;;;17.94;79.04;99806.11;107244;1254;60451;-79
2023/08/12 05:46:47;;;;;;;7.30;6.20;;;;;;;18.02;79.04;99805.61;105748;1258;73022;-78
2023/08/12 05:49:15;;;;;;;8.90;6.40;;;;;;;18.20;78.64;99805.64;105532;1255;70271;-81
2023/08/12 05:51:42;;;;;;;8.30;6.40;;;;;;;18.37;78.20;99807.02;105874;1257;72637;-79
2023/08/12 05:54:09;;;;;;;7.00;6.40;;;;;;;18.48;77.75;99804.12;105808;1257;60477;-78
2023/08/12 05:56:37;;;;;;;7.30;6.60;;;;;;;18.58;77.24;99802.97;105688;1254;60488;-78
2023/08/12 05:59:04;;;;;;;9.70;7.00;;;;;;;18.66;76.63;99803.62;105749;1254;73764;-78
2023/08/12 06:01:31;;;;;;;7.50;6.40;;;;;;;18.64;76.12;99799.78;105851;1254;70291;-78
2023/08/12 06:03:59;;;;;;;7.10;6.40;;;;;;;18.61;76.04;99802.86;105876;1257;72670;-78
2023/08/12 06:06:27;;;;;;;7.50;6.70;;;;;;;18.64;76.06;99805.86;105777;1260;60437;-77
2023/08/12 06:08:54;;;;;;;7.90;7.10;;;;;;;18.66;76.14;99803.45;105853;1260;60360;-79
2023/08/12 06:11:22;;;;;;;7.60;6.70;;;;;;;18.69;75.85;99804.12;106036;1254;72604;-78
2023/08/12 06:13:49;;;;;;;10.10;7.00;;;;;;;18.71;75.94;99798.52;106170;1254;69058;-78
2023/08/12 06:16:16;;;;;;;9.20;6.50;;;;;;;18.81;75.96;99797.33;106322;1257;73615;-78
2023/08/12 06:18:44;;;;;;;8.30;6.30;;;;;;;19.02;75.60;99794.29;106040;1254;61710;-78
2023/08/12 06:21:11;;;;;;;8.40;6.70;;;;;;;19.23;74.89;99793.95;106262;1253;61150;-78
2023/08/12 06:23:39;;;;;;;9.70;6.20;;;;;;;19.32;74.05;99793.14;105792;1258;74101;-79
2023/08/12 06:26:06;;;;;;;7.70;6.10;;;;;;;19.34;73.67;99795.66;105782;1260;69943;-84
2023/08/12 06:28:33;;;;;;;9.70;6.10;;;;;;;19.33;73.60;99789.61;106078;1254;71788;-81
2023/08/12 06:31:01;;;;;;;7.80;6.30;;;;;;;19.37;73.59;99782.56;106486;1254;60504;-80
2023/08/12 06:33:28;;;;;;;9.60;6.20;;;;;;;19.42;73.78;99780.56;108031;1253;59125;-83
2023/08/12 06:35:56;;;;;;;8.50;6.10;;;;;;;19.53;73.47;99778.15;108929;1254;72412;-81
2023/08/12 06:38:24;;;;;;;7.50;6.10;;;;;;;19.72;73.13;99775.44;107777;1254;69073;-78
2023/08/12 06:40:51;;;;;;;6.90;6.20;;;;;;;19.93;72.60;99775.76;106623;1260;71484;-78
2023/08/12 06:43:19;;;;;;;8.40;6.90;;;;;;;20.06;72.33;99776.40;107056;1257;60543;-80
2023/08/12 06:45:46;;;;;;;6.70;6.00;;;;;;;20.20;72.20;99777.79;106821;1257;59293;-79
2023/08/12 06:48:18;;;;;;;7.50;6.60;;;;;;;20.33;71.17;99780.44;108278;1259;73851;-83
2023/08/12 06:50:46;;;;;;;5.90;5.30;;;;;;;20.38;70.61;99777.88;107736;1254;69259;-84
2023/08/12 06:53:13;;;;;;;8.30;6.00;;;;;;;20.37;70.41;99773.48;108796;1254;72837;-81
2023/08/12 06:55:45;;;;;;;7.70;6.10;;;;;;;20.37;70.38;99775.73;108344;1254;59213;-80
2023/08/12 06:58:14;;;;;;;7.70;5.90;;;;;;;20.39;70.36;99780.40;106485;1260;60402;-81
2023/08/12 07:00:42;;;;;;;8.10;6.20;;;;;;;20.42;70.45;99780.46;106234;1255;74114;-83
2023/08/12 07:03:09;;;;;;;8.10;6.40;;;;;;;20.47;70.45;99784.26;106124;1259;70492;-85
2023/08/12 07:05:37;;;;;;;7.10;5.50;;;;;;;20.55;70.13;99782.34;106207;1257;72717;-81
2023/08/12 07:08:05;;;;;;;7.60;5.70;;;;;;;20.68;69.70;99783.45;106231;1257;60549;-82
2023/08/12 07:10:32;;;;;;;6.80;5.90;;;;;;;20.79;69.55;99783.26;105845;1254;60447;-77
2023/08/12 07:13:00;;;;;;;8.80;5.70;;;;;;;20.87;69.05;99784.24;105741;1259;72650;-80
2023/08/12 07:15:27;;;;;;;10.10;6.00;;;;;;;20.92;68.81;99787.98;105909;1254;68990;-80
2023/08/12 07:17:54;;;;;;;8.60;5.90;;;;;;;20.94;68.56;99788.16;106841;1253;71905;-78
2023/08/12 07:20:24;;;;;;;6.80;6.00;;;;;;;20.95;68.36;99786.54;106402;1257;59409;-81
2023/08/12 07:22:51;;;;;;;8.10;6.00;;;;;;;20.97;68.57;99784.53;105949;1260;60434;-78
2023/08/12 07:25:19;;;;;;;7.00;5.50;;;;;;;21.04;68.61;99785.17;105688;1259;73968;-78
2023/08/12 07:27:46;;;;;;;6.20;5.70;;;;;;;21.15;68.26;99788.35;105863;1253;69973;-80
2023/08/12 07:30:14;;;;;;;6.10;5.50;;;;;;;21.30;68.32;99786.49;105928;1254;72526;-81
2023/08/12 07:32:41;;;;;;;6.80;5.60;;;;;;;21.51;67.79;99788.69;106606;1257;60543;-81
2023/08/12 07:35:09;;;;;;;7.80;5.30;;;;;;;21.70;66.81;99797.02;106972;1253;60001;-80
2023/08/12 07:37:36;;;;;;;6.50;6.00;;;;;;;21.83;66.18;99790.42;107751;1254;72584;-82
2023/08/12 07:40:04;;;;;;;8.80;5.60;;;;;;;21.96;65.88;99789.20;107544;1254;69061;-80
2023/08/12 07:42:32;;;;;;;6.80;5.20;;;;;;;22.13;65.82;99789.09;108144;1253;71695;-80
2023/08/12 07:45:05;;;;;;;;;;;;;;;22.37;65.53;99786.55;109125;1254;59305;-83
2023/08/12 07:47:35;;;;;;;7.10;5.20;;;;;;;22.60;65.02;99787.90;108006;1254;60797;-82
2023/08/12 07:50:06;;;;;;;7.20;5.10;;;;;;;22.81;64.25;99790.66;107314;1254;72690;-83
2023/08/12 07:52:34;;;;;;;5.50;4.90;;;;;;;23.01;63.82;99794.02;106584;1254;68748;-83
2023/08/12 07:55:01;;;;;;;6.90;5.80;;;;;;;23.20;63.19;99786.92;106539;1254;71393;-82
2023/08/12 07:57:29;;;;;;;5.30;4.70;;;;;;;23.35;62.47;99784.63;107687;1257;60476;-82
2023/08/12 07:59:56;;;;;;;8.30;4.70;;;;;;;23.52;61.92;99781.70;107609;1254;59273;-79
2023/08/12 08:02:24;;;;;;;9.80;4.60;;;;;;;23.69;61.45;99775.56;106872;1254;73822;-81
2023/08/12 08:04:51;;;;;;;5.80;4.60;;;;;;;23.86;61.03;99778.86;106136;1260;68786;-80
2023/08/12 08:07:19;;;;;;;5.60;4.70;;;;;;;23.97;60.20;99782.02;106197;1254;72478;-84
2023/08/12 08:09:46;;;;;;;6.20;5.10;;;;;;;24.04;60.00;99784.41;105913;1257;60543;-82
2023/08/12 08:12:14;;;;;;;7.60;4.80;;;;;;;24.09;59.33;99784.08;106473;1263;60423;-83
2023/08/12 08:14:41;;;;;;;4.70;4.30;;;;;;;24.10;59.22;99782.58;106403;1260;72595;-83
2023/08/12 08:17:09;;;;;;;6.70;4.70;;;;;;;24.06;58.75;99783.52;106536;1254;71025;-85
2023/08/12 08:19:37;;;;;;;5.80;4.70;;;;;;;23.99;58.70;99781.11;108043;1253;73235;-83
2023/08/12 08:22:05;;;;;;;6.40;5.30;;;;;;;23.97;58.98;99779.52;107417;1257;60424;-84
2023/08/12 08:24:32;;;;;;;5.30;4.90;;;;;;;23.98;58.94;99780.23;106186;1254;60482;-85
2023/08/12 08:26:59;;;;;;;5.50;4.70;;;;;;;24.02;58.88;99781.58;106356;1254;73815;-79
2023/08/12 08:29:27;;;;;;;5.70;4.90;;;;;;;24.07;58.74;99784.56;106112;1254;70733;-80
2023/08/12 08:31:54;;;;;;;7.20;5.40;;;;;;;24.07;58.61;99776.91;105901;1253;75575;-82
2023/08/12 08:34:22;;;;;;;5.40;4.90;;;;;;;23.97;58.74;99779.57;106059;1254;60607;-83
2023/08/12 08:36:50;;;;;;;6.30;5.00;;;;;;;23.88;58.59;99779.70;106650;1257;61208;-81
2023/08/12 08:39:19;;;;;;;8.40;5.10;;;;;;;23.75;59.01;99776.77;107824;1254;72615;-84
2023/08/12 08:41:47;;;;;;;10.50;4.90;;;;;;;23.65;59.10;99781.52;107728;1254;70345;-83
2023/08/12 08:44:15;;;;;;;5.70;4.50;;;;;;;23.60;59.56;99779.30;108763;1254;72832;-83
2023/08/12 08:46:43;;;;;;;5.10;4.40;;;;;;;23.67;59.56;99775.05;108605;1253;58790;-84
2023/08/12 08:49:11;;;;;;;8.70;5.30;;;;;;;23.79;58.76;99777.48;107286;1254;60554;-83
2023/08/12 08:51:38;;;;;;;5.40;4.80;;;;;;;23.75;58.60;99774.38;107070;1252;72596;-84
2023/08/12 08:54:06;;;;;;;6.80;5.70;;;;;;;23.65;58.90;99773.98;108069;1253;68726;-82
2023/08/12 08:56:33;;;;;;;5.60;5.10;;;;;;;23.56;59.08;99776.66;108739;1254;71479;-83
2023/08/12 08:59:04;;;;;;;5.30;4.80;;;;;;;23.54;59.06;99775.27;108588;1253;58898;-81
2023/08/12 09:01:34;;;;;;;6.90;5.30;;;;;;;23.53;59.18;99770.43;106558;1256;60463;-83
2023/08/12 09:04:03;;;;;;;7.70;5.00;;;;;;;23.61;59.09;99767.49;106234;1253;73045;-83
2023/08/12 09:06:30;;;;;;;6.20;5.60;;;;;;;23.77;58.97;99766.42;106019;1254;70476;-83
2023/08/12 09:08:58;;;;;;;5.20;4.70;;;;;;;23.96;58.70;99765.89;106065;1259;71443;-81
2023/08/12 09:11:25;;;;;;;8.20;5.00;;;;;;;24.28;58.36;99767.38;106170;1252;60534;-82
2023/08/12 09:13:53;;;;;;;5.50;5.00;;;;;;;24.55;57.43;99768.65;106423;1260;60518;-81
2023/08/12 09:16:20;;;;;;;10.10;4.90;;;;;;;24.73;57.17;99767.00;107427;1253;73843;-81
2023/08/12 09:18:49;;;;;;;5.20;4.40;;;;;;;24.88;56.86;99762.70;108421;1254;69937;-82
2023/08/12 09:21:16;;;;;;;6.00;4.40;;;;;;;25.12;56.05;99766.86;106255;1254;71084;-83
2023/08/12 09:23:44;;;;;;;6.10;4.70;;;;;;;25.40;55.85;99759.90;106598;1254;60444;-82
2023/08/12 09:26:17;;;;;;;5.30;4.30;;;;;;;25.80;54.83;99755.36;107058;1254;60364;-85
2023/08/12 09:28:45;;;;;;;5.90;3.80;;;;;;;26.30;52.34;99758.23;106142;1257;74014;-81
2023/08/12 09:31:29;;;;;;;5.80;3.90;;;;;;;26.73;50.54;99757.67;106138;1253;70376;-83
2023/08/12 09:34:03;;;;;;;6.20;4.00;;;;;;;27.15;48.57;99752.41;106027;1259;72646;-82
2023/08/12 09:36:30;;;;;;;7.50;4.00;;;;;;;27.39;47.84;99754.36;106338;1254;60395;-80
2023/08/12 09:38:58;;;;;;;4.30;3.70;;;;;;;27.69;47.42;99758.91;106344;1254;60409;-82
2023/08/12 09:41:29;;;;;;;5.60;4.00;;;;;;;28.00;47.37;99754.16;106726;1253;72637;-82
2023/08/12 09:43:59;;;;;;;5.00;3.90;;;;;;;28.33;46.62;99756.77;108703;1254;69011;-84
2023/08/12 09:46:27;;;;;;;4.90;3.80;;;;;;;28.64;45.95;99754.27;108931;1254;71247;-80
2023/08/12 09:48:55;;;;;;;5.00;3.70;;;;;;;28.92;44.15;99750.55;106520;1262;60521;-81
2023/08/12 09:51:23;;;;;;;8.60;4.00;;;;;;;29.06;43.84;99758.82;106572;1254;60605;-81
2023/08/12 09:53:51;;;;;;;9.60;8.60;;;;;;;29.18;43.62;99759.86;106427;1259;72366;-83
2023/08/12 09:56:20;;;;;;;6.70;4.10;;;;;;;29.37;43.34;99757.65;106488;1253;68850;-81
2023/08/12 09:58:48;;;;;;;4.90;3.90;;;;;;;29.62;43.11;99759.85;107721;1254;71406;-81
2023/08/12 10:01:18;;;;;;;5.80;3.90;;;;;;;29.81;42.81;99757.53;106691;1254;60440;-83
2023/08/12 10:03:48;;;;;;;4.70;4.20;;;;;;;29.89;42.64;99758.91;106948;1254;60050;-84
2023/08/12 10:06:17;;;;;;;5.20;3.90;;;;;;;29.86;42.12;99759.45;108378;1253;72588;-80
2023/08/12 10:08:48;;;;;;;5.80;4.00;;;;;;;29.78;42.13;99768.75;107823;1254;68724;-79
2023/08/12 10:11:15;;;;;;;4.10;3.40;;;;;;;29.83;42.38;99761.46;107891;1253;71433;-82
2023/08/12 10:13:43;;;;;;;4.80;3.70;;;;;;;30.22;42.64;99762.96;106660;1256;60541;-82
2023/08/12 10:16:11;;;;;;;6.40;3.60;;;;;;;30.72;41.37;99766.63;106474;1254;60504;-83
2023/08/12 10:18:40;;;;;;;4.80;4.00;;;;;;;31.07;40.28;99768.08;106745;1254;72584;-81
2023/08/12 10:21:09;;;;;;;5.70;3.60;;;;;;;31.21;39.96;99767.83;106030;1254;70417;-81
2023/08/12 10:23:36;;;;;;;6.70;5.00;;;;;;;31.24;39.10;99771.09;106100;1260;72737;-77
2023/08/12 10:26:05;;;;;;;5.40;4.20;;;;;;;31.12;39.20;99780.11;105863;1259;60434;-78
2023/08/12 10:28:36;;;;;;;4.80;3.80;;;;;;;31.03;39.12;99780.67;106090;1253;61274;-84
2023/08/12 10:31:05;;;;;;;4.70;3.70;;;;;;;31.12;39.18;99777.11;106555;1253;72660;-81
2023/08/12 10:33:40;;;;;;;6.10;4.30;;;;;;;31.38;38.52;99776.64;108383;1254;70214;-84
2023/08/12 10:36:08;;;;;;;4.50;4.10;;;;;;;31.78;38.29;99767.84;106728;1253;71434;-82
2023/08/12 10:38:35;;;;;;;5.20;3.50;;;;;;;32.17;37.85;99767.73;107566;1257;60472;-80
2023/08/12 10:41:15;;;;;;;4.40;3.70;;;;;;;32.43;37.26;99760.48;106325;1253;60533;-80
2023/08/12 10:43:49;;;;;;;5.30;3.40;;;;;;;32.50;36.98;99758.95;108673;1253;72815;-80
2023/08/12 10:46:33;;;;;;;4.70;3.90;;;;;;;32.47;36.95;99760.08;108450;1254;68707;-81
2023/08/12 10:49:04;;;;;;;4.20;3.80;;;;;;;32.37;37.09;99759.88;107850;1253;71440;-86
2023/08/12 10:51:51;;;;;;;7.00;3.90;;;;;;;32.27;37.26;99767.16;106207;1254;60497;-79
2023/08/12 10:54:30;;;;;;;4.90;4.20;;;;;;;32.07;37.44;99767.90;106286;1254;60456;-84
2023/08/12 10:57:05;;;;;;;4.00;3.60;;;;;;;31.79;37.60;99766.17;106182;1254;73893;-84
2023/08/12 10:59:45;;;;;;;6.70;4.40;;;;;;;31.44;37.93;99771.54;108053;1254;71689;-84
2023/08/12 11:02:16;;;;;;;4.80;3.50;;;;;;;31.06;38.59;99771.95;109270;1253;71444;-83
2023/08/12 11:04:50;;;;;;;4.50;3.60;;;;;;;30.74;38.82;99773.77;109154;1257;59283;-81
2023/08/12 11:07:18;;;;;;;5.20;3.60;;;;;;;30.45;39.37;99770.27;108289;1254;60433;-83
2023/08/12 11:09:46;;;;;;;4.60;4.10;;;;;;;30.23;39.70;99775.92;106796;1259;72609;-81
2023/08/12 11:12:34;;;;;;;5.90;3.80;;;;;;;30.02;40.21;99780.13;106825;1254;69396;-83
2023/08/12 11:15:03;;;;;;;6.70;4.60;;;;;;;29.80;40.31;99780.94;106798;1254;71662;-83
2023/08/12 11:17:35;;;;;;;5.50;3.30;;;;;;;29.66;40.70;99781.52;107656;1254;60495;-81
2023/08/12 11:20:07;;;;;;;4.80;4.00;;;;;;;29.50;40.78;99789.09;108825;1252;59641;-79
2023/08/12 11:22:37;;;;;;;4.10;3.70;;;;;;;29.22;41.23;99787.01;108990;1253;73995;-82
2023/08/12 11:25:08;;;;;;;5.00;4.50;;;;;;;28.99;41.54;99792.25;106990;1252;68696;-82
2023/08/12 11:27:41;;;;;;;5.00;4.40;;;;;;;28.76;42.00;99794.11;106470;1254;71419;-83
2023/08/12 11:30:20;;;;;;;;;;;;;;;28.39;42.29;99790.31;106267;1256;60309;-82